Flight Track Log - Related Links

Times and Time Zones

All times are in EDT time to prevent confusion due to time zone crossing. See the RPA3392 flight status page for this flight to view local times or setup timezone preferences in your user account.

Time Position Orientation Groundspeed Altitude Reporting Facility
EDT Latitude Longitude Course Direction KTS MPH feet Rate Location/Type
Wed 10:32:35 PM 38.8167 -77.0333 90° East 156 180 1,600  Level Potomac TRACON
Wed 10:33:35 PM 38.7667 -77.0167 165° South 222 255 3,200 1,952 Climbing Potomac TRACON
Wed 10:34:41 PM 38.7667 -76.9333 90° East 285 328 5,700 2,324 Climbing Potomac TRACON
Wed 10:36:00 PM 39.0764 -76.4106 61° Northeast  Level FlightAware Approximate
Wed 10:36:28 PM 38.8833 -76.8931 15° North 252 290 9,900  Level Washington Center
Wed 10:37:00 PM 39.1167 -76.2837 90° East  Level FlightAware Approximate
Wed 10:37:29 PM 38.9322 -76.8031 55° Northeast 272 313 11,700  Level Washington Center
Wed 10:38:27 PM 38.9731 -76.6944 64° Northeast 301 346 13,900 1,765 Climbing Washington Center
Wed 10:39:28 PM 39.0178 -76.5775 64° Northeast 328 377 15,200 1,700 Climbing Washington Center
Wed 10:40:27 PM 39.0625 -76.4578 64° Northeast 353 406 17,300 1,785 Climbing Washington Center
Wed 10:41:29 PM 39.1069 -76.3378 64° Northeast 364 419 18,800 1,366 Climbing Washington Center
Wed 10:42:30 PM 39.1514 -76.2181 64° Northeast 369 425 20,100 1,424 Climbing Washington Center
Wed 10:43:27 PM 39.1689 -76.0656 82° East 375 432 21,600 1,271 Climbing Washington Center
Wed 10:44:28 PM 39.1881 -75.9264 80° East 382 440 22,600 1,091 Climbing Washington Center
Wed 10:45:28 PM 39.2508 -75.8086 55° Northeast 382 440 23,800 1,091 Climbing Washington Center
Wed 10:46:29 PM 39.3322 -75.7017 45° Northeast 393 452 24,800 605 Climbing Washington Center
Wed 10:47:27 PM 39.4136 -75.5942 46° Northeast 400 460 25,000 100 Climbing Washington Center
Wed 10:48:29 PM 39.4989 -75.4867 44° Northeast 412 474 25,000  Level Washington Center
Wed 10:49:29 PM 39.5800 -75.3789 46° Northeast 417 480 25,000  Level Washington Center
Wed 10:51:47 PM 39.7667 -75.1136 47° Northeast 418 481 25,000  Level New York Center
Wed 10:52:47 PM 39.8478 -75.0050 46° Northeast 423 487 25,000  Level New York Center
Wed 10:53:47 PM 39.9250 -74.8906 49° Northeast 423 487 25,000  Level New York Center
Wed 10:54:47 PM 40.0036 -74.7842 46° Northeast 423 487 25,000  Level New York Center
Wed 10:55:47 PM 40.0739 -74.6797 49° Northeast 423 487 25,000  Level New York Center
Wed 10:56:47 PM 40.1592 -74.5569 48° Northeast 418 481 25,000  Level New York Center
Wed 10:57:47 PM 40.2458 -74.4475 44° Northeast 418 481 25,000  Level New York Center
Wed 10:58:47 PM 40.3364 -74.3517 39° Northeast 418 481 25,000  Level New York Center
Wed 10:59:47 PM 40.4247 -74.2553 40° Northeast 413 475 25,000  Level New York Center
Wed 11:00:47 PM 40.5150 -74.1589 39° Northeast 413 475 25,000 -321 Level New York Center
Wed 11:02:54 PM 40.7019 -73.9622 39° Northeast 412 474 24,000 -323 Descending Boston Center
Wed 11:03:53 PM 40.7886 -73.8683 39° Northeast 412 474 24,000  Level Boston Center
Wed 11:04:53 PM 40.8733 -73.7658 42° Northeast 406 467 24,000 -150 Level Boston Center
Wed 11:05:53 PM 40.9536 -73.6767 40° Northeast 406 467 23,700 -496 Descending Boston Center
Wed 11:06:54 PM 41.0628 -73.6017 27° Northeast 406 467 23,000 -344 Descending Boston Center
Wed 11:07:55 PM 41.1633 -73.5292 28° Northeast 406 467 23,000 -400 Level Boston Center
Wed 11:08:54 PM 41.2681 -73.4839 18° North 392 451 22,200 -1,050 Descending Boston Center
Wed 11:09:55 PM 41.3764 -73.5022 353° North 379 436 20,900 -1,271 Descending Boston Center
Wed 11:10:52 PM 41.4822 -73.5264 350° North 379 436 19,700 -1,160 Descending Boston Center
Wed 11:11:54 PM 41.5739 -73.5444 352° North 374 430 18,600 -1,082 Descending Boston Center
Wed 11:12:54 PM 41.6819 -73.5825 345° North 369 425 17,500 -1,388 Descending Boston Center
Wed 11:13:55 PM 41.7583 -73.6478 327° Northwest 359 413 15,800 -1,884 Descending Boston Center
Wed 11:14:55 PM 41.8622 -73.6806 347° North 344 396 13,700 -1,932 Descending Boston Center
Wed 11:15:53 PM 41.9433 -73.6906 355° North 334 384 12,000 -1,528 Descending Boston Center
Wed 11:16:41 PM 42.0286 -73.7061 352° North 334 384 11,000 -556 Descending Boston Center
Wed 11:17:41 PM 42.1222 -73.7164 355° North 331 381 11,000  Level Boston Center
Wed 11:18:54 PM 42.2306 -73.7300 355° North 333 383 11,000 -298 Level Boston Center
Wed 11:19:42 PM 42.3014 -73.7258 North 302 348 10,400 -1,266 Descending Boston Center
Wed 11:20:43 PM 42.3808 -73.7189 North 285 328 8,700 -1,672 Descending Boston Center
Wed 11:21:44 PM 42.4642 -73.7094 North 283 326 7,000 -1,734 Descending Boston Center
Wed 11:22:51 PM 42.5456 -73.6997 North 271 312 5,000 -1,406 Descending Boston Center
Wed 11:23:52 PM 42.6206 -73.6928 North 269 310 4,000 -496 Descending Boston Center
Wed 11:24:52 PM 42.6894 -73.6858 North 243 280 4,000 -298 Level Boston Center
Wed 11:25:53 PM 42.7606 -73.6758 North 237 273 3,400 -639 Descending Boston Center
Wed 11:26:54 PM 42.8189 -73.6769 359° North 205 236 2,700 -492 Descending Boston Center
Wed 11:27:55 PM 42.8475 -73.7231 310° West 171 197 2,400 -390 Descending Boston Center
Wed 11:28:57 PM 42.8344 -73.7822 253° West 170 196 1,900 -645 Descending Boston Center
Wed 11:29:56 PM 42.7986 -73.8097 209° Southwest 153 176 1,100 -807 Descending Boston Center
Wed 11:30:56 PM 42.7589 -73.8058 176° South 129 148 300 -800 Descending Boston Center

Login

Don't have an account? Register now (free) for customized features, flight alerts, and more!